createdAt,value
2018-04-25T00:02:07.978Z,5.00
2018-04-25T00:04:39.279Z,7.57
2018-04-25T00:07:10.088Z,6.17
2018-04-25T00:09:41.087Z,5.70
2018-04-25T00:12:11.406Z,6.53
2018-04-25T00:14:41.573Z,4.43
2018-04-25T00:17:11.913Z,5.80
2018-04-25T00:19:42.274Z,4.90
2018-04-25T00:22:12.161Z,5.97
2018-04-25T00:24:42.317Z,5.10
2018-04-25T00:27:12.311Z,7.33
2018-04-25T00:29:42.304Z,5.67
2018-04-25T00:32:12.474Z,4.43
2018-04-25T00:34:42.593Z,5.83
2018-04-25T00:37:13.067Z,5.43
2018-04-25T00:39:44.807Z,4.20
2018-04-25T00:42:15.741Z,7.17
2018-04-25T00:44:48.286Z,6.17
2018-04-25T00:47:18.608Z,4.03
2018-04-25T00:49:49.161Z,4.67
2018-04-25T00:52:20.090Z,5.57
2018-04-25T00:54:50.339Z,5.53
2018-04-25T00:57:21.201Z,6.10
2018-04-25T00:59:51.568Z,7.37
2018-04-25T01:02:21.658Z,7.47
2018-04-25T01:04:52.097Z,6.17
2018-04-25T01:07:22.341Z,6.23
2018-04-25T01:09:52.570Z,5.23
2018-04-25T01:12:23.003Z,7.43
2018-04-25T01:14:53.071Z,6.03
2018-04-25T01:17:23.179Z,7.27
2018-04-25T01:19:54.289Z,6.50
2018-04-25T01:22:25.695Z,6.53
2018-04-25T01:24:56.518Z,5.93
2018-04-25T01:27:26.548Z,7.87
2018-04-25T01:29:56.622Z,6.17
2018-04-25T01:32:27.308Z,6.90
2018-04-25T01:34:58.361Z,8.67
2018-04-25T01:37:34.215Z,5.30
2018-04-25T01:40:04.677Z,7.17
2018-04-25T01:42:36.072Z,8.90
2018-04-25T01:45:06.299Z,7.53
2018-04-25T01:47:37.546Z,7.77
2018-04-25T01:50:07.821Z,8.47
2018-04-25T01:52:48.997Z,6.47
2018-04-25T01:55:31.281Z,8.03
2018-04-25T01:58:11.802Z,7.77
2018-04-25T02:00:53.134Z,8.27
2018-04-25T02:03:30.472Z,5.80
2018-04-25T02:06:00.593Z,5.83
2018-04-25T02:08:31.359Z,9.47
2018-04-25T02:11:01.688Z,5.27
2018-04-25T02:13:31.917Z,7.27
2018-04-25T02:16:02.469Z,5.83
2018-04-25T02:18:38.064Z,6.57
2018-04-25T02:21:07.964Z,8.40
2018-04-25T02:23:37.908Z,6.90
2018-04-25T02:26:07.953Z,8.83
2018-04-25T02:28:38.150Z,5.93
2018-04-25T02:31:09.264Z,6.90
2018-04-25T02:33:39.132Z,7.60
2018-04-25T02:36:10.024Z,8.00
2018-04-25T02:38:40.742Z,6.33
2018-04-25T02:41:12.422Z,6.03
2018-04-25T02:43:43.533Z,5.30
2018-04-25T02:46:13.703Z,5.93
2018-04-25T02:48:44.022Z,6.83
2018-04-25T02:51:14.835Z,8.50
2018-04-25T02:53:44.870Z,8.27
2018-04-25T02:56:15.222Z,6.77
2018-04-25T02:58:45.008Z,8.70
2018-04-25T03:01:16.186Z,6.93
2018-04-25T03:03:46.097Z,6.97
2018-04-25T03:06:16.258Z,8.93
2018-04-25T03:08:47.190Z,7.20
2018-04-25T03:11:17.813Z,8.43
2018-04-25T03:13:47.753Z,6.30
2018-04-25T03:16:18.070Z,7.30
2018-04-25T03:18:48.029Z,10.63
2018-04-25T03:21:18.234Z,7.20
2018-04-25T03:23:48.973Z,7.03
2018-04-25T03:26:19.444Z,8.87
2018-04-25T03:28:50.324Z,8.57
2018-04-25T03:31:21.972Z,8.53
2018-04-25T03:33:52.026Z,7.83
2018-04-25T03:36:22.228Z,9.30
2018-04-25T03:38:53.351Z,8.27
2018-04-25T03:41:23.535Z,10.33
2018-04-25T03:43:53.466Z,10.57
2018-04-25T03:46:24.614Z,8.80
2018-04-25T03:48:55.653Z,7.83
2018-04-25T03:51:26.458Z,9.90
2018-04-25T03:53:56.595Z,10.57
2018-04-25T03:56:27.505Z,8.37
2018-04-25T03:58:57.439Z,7.53
2018-04-25T04:01:27.391Z,11.70
2018-04-25T04:03:58.391Z,11.20
2018-04-25T04:06:28.894Z,10.50
2018-04-25T04:08:59.321Z,7.50
2018-04-25T04:11:29.404Z,7.13
2018-04-25T04:13:59.106Z,11.53
2018-04-25T04:16:29.927Z,11.97
2018-04-25T04:19:00.477Z,8.33
2018-04-25T04:21:31.289Z,9.13
2018-04-25T04:24:01.095Z,12.33
2018-04-25T04:26:31.658Z,8.93
2018-04-25T04:29:01.776Z,9.87
2018-04-25T04:31:31.566Z,8.70
2018-04-25T04:37:03.571Z,17.53
2018-04-25T04:39:33.923Z,10.07
2018-04-25T04:42:03.762Z,11.10
2018-04-25T04:44:34.343Z,12.13
2018-04-25T04:47:04.250Z,10.70
2018-04-25T04:49:34.864Z,9.40
2018-04-25T04:52:05.453Z,10.37
2018-04-25T04:54:35.506Z,12.00
2018-04-25T04:57:06.921Z,10.27
2018-04-25T04:59:37.030Z,11.43
2018-04-25T05:02:07.374Z,10.23
2018-04-25T05:04:37.394Z,10.97
2018-04-25T05:07:07.802Z,9.27
2018-04-25T05:09:39.035Z,11.70
2018-04-25T05:12:09.500Z,10.53
2018-04-25T05:14:44.413Z,11.07
2018-04-25T05:17:15.421Z,9.20
2018-04-25T05:19:47.382Z,11.10
2018-04-25T05:22:17.963Z,9.60
2018-04-25T05:24:49.178Z,8.13
2018-04-25T05:27:19.199Z,11.32
2018-04-25T05:29:49.465Z,9.17
2018-04-25T05:32:20.578Z,11.23
2018-04-25T05:34:50.517Z,10.70
2018-04-25T05:37:20.357Z,10.33
2018-04-25T05:39:50.513Z,9.90
2018-04-25T05:42:20.856Z,8.93
2018-04-25T05:44:51.270Z,8.37
2018-04-25T05:47:21.433Z,9.10
2018-04-25T05:49:53.714Z,8.57
2018-04-25T05:52:24.483Z,8.00
2018-04-25T05:54:55.041Z,8.50
2018-04-25T05:57:24.844Z,6.73
2018-04-25T05:59:54.822Z,10.90
2018-04-25T06:02:25.761Z,9.40
2018-04-25T06:04:59.314Z,11.80
2018-04-25T06:07:29.194Z,8.27
2018-04-25T06:09:59.937Z,10.10
2018-04-25T06:12:29.744Z,8.60
2018-04-25T06:14:59.783Z,9.00
2018-04-25T06:17:29.880Z,7.87
2018-04-25T06:20:00.294Z,8.47
2018-04-25T06:22:30.905Z,11.30
2018-04-25T06:25:01.622Z,5.90
2018-04-25T06:27:32.243Z,5.80
2018-04-25T06:30:02.998Z,6.20
2018-04-25T06:32:33.091Z,5.87
2018-04-25T06:35:03.178Z,4.90
2018-04-25T06:37:33.909Z,4.60
2018-04-25T06:40:04.923Z,5.50
2018-04-25T06:42:35.733Z,4.00
2018-04-25T06:45:06.055Z,4.53
2018-04-25T06:47:36.261Z,3.20
2018-04-25T06:50:08.766Z,4.53
2018-04-25T06:52:39.827Z,4.30
2018-04-25T06:55:10.173Z,4.23
2018-04-25T06:57:40.957Z,2.93
2018-04-25T07:00:11.233Z,4.80
2018-04-25T07:02:42.027Z,3.60
2018-04-25T07:05:13.678Z,3.10
2018-04-25T07:07:44.508Z,6.13
2018-04-25T07:10:15.859Z,4.30
2018-04-25T07:12:45.955Z,3.30
2018-04-25T07:15:15.838Z,4.73
2018-04-25T07:17:46.557Z,3.50
2018-04-25T07:20:17.156Z,3.00
2018-04-25T07:22:49.990Z,4.40
2018-04-25T07:25:20.198Z,4.50
2018-04-25T07:27:50.622Z,3.17
2018-04-25T07:30:21.938Z,3.37
2018-04-25T07:35:54.640Z,2.77
2018-04-25T07:38:25.683Z,2.97
2018-04-25T07:40:55.836Z,3.53
2018-04-25T07:43:26.134Z,2.83
2018-04-25T07:45:56.953Z,3.03
2018-04-25T07:48:27.938Z,1.87
2018-04-25T07:50:59.661Z,2.53
2018-04-25T07:53:32.547Z,3.53
2018-04-25T07:56:03.369Z,4.83
2018-04-25T07:58:34.150Z,2.13
2018-04-25T08:01:04.145Z,2.33
2018-04-25T08:03:35.371Z,2.00
2018-04-25T08:06:07.025Z,2.30
2018-04-25T08:08:37.782Z,2.37
2018-04-25T08:11:08.322Z,2.70
2018-04-25T08:14:55.581Z,3.10
2018-04-25T08:18:38.497Z,1.67
2018-04-25T08:21:11.338Z,2.50
2018-04-25T08:23:42.349Z,1.80
2018-04-25T08:26:12.336Z,1.40
2018-04-25T08:28:43.015Z,1.90
2018-04-25T08:31:14.530Z,1.30
2018-04-25T08:33:45.437Z,2.27
2018-04-25T08:36:15.440Z,1.50
2018-04-25T08:38:47.061Z,1.40
2018-04-25T08:41:17.277Z,1.63
2018-04-25T08:43:48.645Z,1.60
2018-04-25T08:46:20.509Z,1.80
2018-04-25T08:48:51.855Z,1.93
2018-04-25T08:51:23.821Z,1.53
2018-04-25T08:53:57.926Z,1.40
2018-04-25T08:56:27.739Z,1.30
2018-04-25T08:58:59.033Z,1.70
2018-04-25T09:01:32.184Z,1.53
2018-04-25T09:04:03.906Z,3.23
2018-04-25T09:06:37.195Z,1.20
2018-04-25T09:09:12.261Z,1.20
2018-04-25T09:11:42.356Z,2.20
2018-04-25T09:14:12.602Z,1.10
2018-04-25T09:16:43.207Z,1.43
2018-04-25T09:19:12.942Z,1.20
2018-04-25T09:21:43.063Z,1.37
2018-04-25T09:24:13.546Z,1.57
2018-04-25T09:26:44.369Z,1.30
2018-04-25T09:29:14.335Z,1.27
2018-04-25T09:31:45.068Z,1.40
2018-04-25T09:34:14.808Z,2.93
2018-04-25T09:36:45.513Z,1.57
2018-04-25T09:39:15.555Z,1.77
2018-04-25T09:41:47.178Z,1.53
2018-04-25T09:44:17.681Z,1.40
2018-04-25T09:46:47.673Z,2.93
2018-04-25T09:49:17.954Z,1.30
2018-04-25T09:51:48.785Z,1.63
2018-04-25T09:54:21.808Z,2.10
2018-04-25T09:56:55.312Z,1.30
2018-04-25T09:59:25.627Z,1.77
2018-04-25T10:02:00.418Z,1.70
2018-04-25T10:04:30.958Z,1.50
2018-04-25T10:07:01.038Z,2.17
2018-04-25T10:09:31.077Z,1.40
2018-04-25T10:12:00.939Z,1.63
2018-04-25T10:14:32.008Z,1.90
2018-04-25T10:17:02.086Z,1.50
2018-04-25T10:19:35.727Z,1.90
2018-04-25T10:22:05.523Z,1.30
2018-04-25T10:24:37.122Z,1.37
2018-04-25T10:27:08.814Z,1.40
2018-04-25T10:29:38.883Z,3.30
2018-04-25T10:32:17.003Z,1.60
2018-04-25T10:35:00.670Z,1.30
2018-04-25T10:37:33.011Z,2.07
2018-04-25T10:40:03.626Z,1.30
2018-04-25T10:42:35.341Z,2.00
2018-04-25T10:45:07.486Z,1.37
2018-04-25T10:47:53.487Z,5.80
2018-04-25T10:50:26.334Z,1.87
2018-04-25T10:52:57.318Z,3.00
2018-04-25T10:55:28.725Z,2.33
2018-04-25T10:58:03.338Z,1.43
2018-04-25T11:00:34.377Z,4.13
2018-04-25T11:03:05.386Z,2.27
2018-04-25T11:05:36.520Z,1.90
2018-04-25T11:08:11.120Z,2.70
2018-04-25T11:10:48.292Z,2.30
2018-04-25T11:13:20.195Z,1.60
2018-04-25T11:15:51.169Z,2.63
2018-04-25T11:18:27.012Z,3.90
2018-04-25T11:20:58.671Z,2.07
2018-04-25T11:23:29.010Z,1.73
2018-04-25T11:25:59.242Z,2.40
2018-04-25T11:28:31.290Z,2.27
2018-04-25T11:31:01.818Z,2.40
2018-04-25T11:33:36.325Z,4.43
2018-04-25T11:36:08.226Z,2.40
2018-04-25T11:38:39.443Z,2.37
2018-04-25T11:41:11.440Z,3.90
2018-04-25T11:43:43.042Z,2.75
2018-04-25T11:46:16.269Z,2.33
2018-04-25T11:48:48.402Z,2.90
2018-04-25T11:51:19.861Z,1.90
2018-04-25T11:53:51.362Z,2.03
2018-04-25T11:56:21.100Z,3.30
2018-04-25T11:58:53.586Z,2.23
2018-04-25T12:01:25.897Z,3.57
2018-04-25T12:04:01.184Z,2.83
2018-04-25T12:06:31.994Z,2.13
2018-04-25T12:09:02.922Z,1.77
2018-04-25T12:11:33.252Z,2.33
2018-04-25T12:14:03.868Z,2.28
2018-04-25T12:16:34.719Z,1.77
2018-04-25T12:19:05.094Z,2.00
2018-04-25T12:21:35.456Z,2.07
2018-04-25T12:24:08.999Z,1.40
2018-04-25T12:26:39.490Z,2.17
2018-04-25T12:29:10.382Z,1.97
2018-04-25T12:31:41.858Z,2.97
2018-04-25T12:34:13.907Z,2.20
2018-04-25T12:36:44.997Z,2.07
2018-04-25T12:39:17.029Z,2.40
2018-04-25T12:41:47.385Z,2.00
2018-04-25T12:44:17.514Z,3.57
2018-04-25T12:46:47.579Z,3.43
2018-04-25T12:49:18.612Z,1.73
2018-04-25T12:51:49.926Z,2.17
2018-04-25T12:54:24.782Z,1.97
2018-04-25T12:56:56.209Z,1.33
2018-04-25T12:59:27.123Z,1.10
2018-04-25T13:01:57.603Z,1.80
2018-04-25T13:04:32.825Z,4.57
2018-04-25T13:07:02.884Z,4.47
2018-04-25T13:09:36.669Z,4.53
2018-04-25T13:12:09.978Z,3.43
2018-04-25T13:14:44.136Z,4.60
2018-04-25T13:17:19.560Z,4.07
2018-04-25T13:19:52.124Z,4.60
2018-04-25T13:22:24.505Z,3.50
2018-04-25T13:24:55.458Z,2.93
2018-04-25T13:27:26.384Z,3.40
2018-04-25T13:29:59.542Z,3.03
2018-04-25T13:32:30.572Z,2.87
2018-04-25T13:35:00.885Z,2.90
2018-04-25T13:37:40.967Z,2.13
2018-04-25T13:40:17.077Z,2.60
2018-04-25T13:42:50.376Z,4.63
2018-04-25T13:45:21.161Z,4.50
2018-04-25T13:47:55.066Z,4.40
2018-04-25T13:50:26.628Z,6.67
2018-04-25T13:52:57.481Z,3.70
2018-04-25T13:55:29.639Z,3.80
2018-04-25T13:57:59.791Z,3.83
2018-04-25T14:00:31.278Z,2.43
2018-04-25T14:03:02.797Z,3.70
2018-04-25T14:05:33.672Z,2.37
2018-04-25T14:08:04.980Z,1.37
2018-04-25T14:10:36.295Z,1.63
2018-04-25T14:13:07.796Z,4.47
2018-04-25T14:15:38.957Z,4.33
2018-04-25T14:18:09.811Z,2.20
2018-04-25T14:20:41.039Z,1.50
2018-04-25T14:23:11.142Z,3.23
2018-04-25T14:25:41.262Z,2.37
2018-04-25T14:28:11.766Z,1.93
2018-04-25T14:30:41.587Z,1.20
2018-04-25T14:33:11.957Z,2.17
2018-04-25T14:35:42.892Z,3.73
2018-04-25T14:38:13.091Z,2.17
2018-04-25T14:40:44.834Z,2.30
2018-04-25T14:43:14.950Z,0.93
2018-04-25T14:45:46.718Z,1.77
2018-04-25T14:48:17.030Z,2.87
2018-04-25T14:50:47.488Z,2.70
2018-04-25T14:53:19.319Z,1.80
2018-04-25T14:55:49.734Z,1.07
2018-04-25T14:58:20.145Z,2.30
2018-04-25T15:00:50.195Z,2.70
2018-04-25T15:03:20.600Z,3.43
2018-04-25T15:05:51.224Z,2.50
2018-04-25T15:08:21.221Z,0.97
2018-04-25T15:10:51.928Z,1.90
2018-04-25T15:13:22.973Z,4.90
2018-04-25T15:15:53.522Z,1.77
2018-04-25T15:18:24.569Z,1.47
2018-04-25T15:20:55.584Z,2.40
2018-04-25T15:23:25.895Z,2.77
2018-04-25T15:25:55.939Z,3.40
2018-04-25T15:28:26.830Z,5.43
2018-04-25T15:30:57.937Z,3.07
2018-04-25T15:33:29.489Z,2.97
2018-04-25T15:36:00.333Z,2.77
2018-04-25T15:38:35.325Z,2.40
2018-04-25T15:41:06.785Z,2.10
2018-04-25T15:43:38.054Z,3.00
2018-04-25T15:46:11.109Z,3.37
2018-04-25T15:48:41.187Z,2.80
2018-04-25T15:51:11.273Z,2.13
2018-04-25T15:53:42.774Z,2.47
2018-04-25T15:56:13.555Z,1.70
2018-04-25T15:58:45.456Z,1.53
2018-04-25T16:01:16.843Z,0.80
2018-04-25T16:03:48.207Z,2.53
2018-04-25T16:06:19.013Z,1.80
2018-04-25T16:08:50.416Z,2.33
2018-04-25T16:11:23.071Z,2.50
2018-04-25T16:13:53.596Z,2.33
2018-04-25T16:16:23.956Z,2.67
2018-04-25T16:18:54.123Z,2.43
2018-04-25T16:21:24.656Z,1.50
2018-04-25T16:23:54.320Z,2.37
2018-04-25T16:26:24.134Z,2.40
2018-04-25T16:28:54.161Z,2.37
2018-04-25T16:31:24.247Z,1.37
2018-04-25T16:33:55.374Z,2.20
2018-04-25T16:36:25.747Z,2.40
2018-04-25T16:38:55.854Z,2.43
2018-04-25T16:41:26.254Z,2.83
2018-04-25T16:43:58.403Z,2.87
2018-04-25T16:46:29.765Z,2.17
2018-04-25T16:48:59.618Z,3.77
2018-04-25T16:51:30.835Z,2.40
2018-04-25T16:54:02.074Z,1.40
2018-04-25T16:56:33.780Z,3.10
2018-04-25T16:59:05.293Z,4.93
2018-04-25T17:01:35.598Z,2.77
2018-04-25T17:04:07.125Z,2.77
2018-04-25T17:06:42.036Z,2.60
2018-04-25T17:09:12.735Z,1.43
2018-04-25T17:11:43.903Z,3.67
2018-04-25T17:14:15.204Z,3.60
2018-04-25T17:16:46.193Z,1.47
2018-04-25T17:19:16.436Z,2.37
2018-04-25T17:21:47.430Z,2.47
2018-04-25T17:24:17.802Z,3.23
2018-04-25T17:26:48.430Z,3.00
2018-04-25T17:29:20.721Z,3.00
2018-04-25T17:31:50.548Z,1.93
2018-04-25T17:34:21.717Z,2.43
2018-04-25T17:36:53.388Z,4.17
2018-04-25T17:39:24.610Z,2.47
2018-04-25T17:41:55.809Z,4.40
2018-04-25T17:44:25.678Z,3.43
2018-04-25T17:46:55.654Z,3.10
2018-04-25T17:49:27.013Z,2.23
2018-04-25T17:51:57.100Z,4.70
2018-04-25T17:54:30.035Z,3.00
2018-04-25T17:57:01.160Z,2.80
2018-04-25T17:59:31.278Z,1.73
2018-04-25T18:02:02.331Z,3.00
2018-04-25T18:04:33.197Z,2.00
2018-04-25T18:07:04.294Z,2.80
2018-04-25T18:09:34.292Z,2.23
2018-04-25T18:12:04.519Z,2.30
2018-04-25T18:14:35.239Z,4.00
2018-04-25T18:17:07.135Z,4.53
2018-04-25T18:19:37.532Z,1.97
2018-04-25T18:22:09.928Z,3.57
2018-04-25T18:24:41.130Z,3.30
2018-04-25T18:27:11.009Z,4.07
2018-04-25T18:29:42.598Z,4.60
2018-04-25T18:32:14.419Z,3.90
2018-04-25T18:34:45.516Z,1.47
2018-04-25T18:37:17.181Z,9.70
2018-04-25T18:39:47.432Z,3.50
2018-04-25T18:42:17.884Z,2.90
2018-04-25T18:44:49.038Z,3.90
2018-04-25T18:47:19.985Z,2.40
2018-04-25T18:49:51.081Z,3.17
2018-04-25T18:52:22.355Z,2.10
2018-04-25T18:54:53.684Z,2.23
2018-04-25T18:57:24.621Z,1.83
2018-04-25T18:59:54.631Z,4.57
2018-04-25T19:02:25.266Z,3.20
2018-04-25T19:04:56.713Z,4.17
2018-04-25T19:07:26.914Z,3.03
2018-04-25T19:10:00.696Z,2.17
2018-04-25T19:12:31.693Z,1.70
2018-04-25T19:15:02.852Z,2.00
2018-04-25T19:17:34.807Z,1.70
2018-04-25T19:20:06.499Z,2.23
2018-04-25T19:22:37.055Z,4.53
2018-04-25T19:25:06.927Z,2.53
2018-04-25T19:27:36.813Z,1.80
2018-04-25T19:30:07.145Z,2.93
2018-04-25T19:32:37.031Z,2.43
2018-04-25T19:35:07.746Z,1.47
2018-04-25T19:37:37.836Z,3.47
2018-04-25T19:40:07.774Z,4.23
2018-04-25T19:42:38.769Z,3.63
2018-04-25T19:45:09.932Z,5.73
2018-04-25T19:47:40.718Z,2.40
2018-04-25T19:50:13.806Z,2.13
2018-04-25T19:52:43.746Z,2.80
2018-04-25T19:55:14.762Z,4.00
2018-04-25T19:57:44.688Z,3.23
2018-04-25T20:00:14.854Z,2.77
2018-04-25T20:02:45.433Z,3.97
2018-04-25T20:05:15.317Z,6.67
2018-04-25T20:07:45.264Z,4.63
2018-04-25T20:10:15.482Z,7.23
2018-04-25T20:12:45.623Z,5.13
2018-04-25T20:15:17.389Z,4.30
2018-04-25T20:17:48.340Z,3.50
2018-04-25T20:20:19.138Z,4.00
2018-04-25T20:22:50.270Z,2.47
2018-04-25T20:25:20.805Z,6.50
2018-04-25T20:27:50.639Z,2.90
2018-04-25T20:30:21.371Z,2.57
2018-04-25T20:32:56.555Z,4.00
2018-04-25T20:35:27.498Z,2.73
2018-04-25T20:38:03.948Z,3.43
2018-04-25T20:40:34.445Z,2.87
2018-04-25T20:43:05.921Z,2.77
2018-04-25T20:45:36.583Z,5.37
2018-04-25T20:48:07.157Z,5.17
2018-04-25T20:50:37.330Z,3.70
2018-04-25T20:53:07.573Z,4.37
2018-04-25T20:55:37.456Z,6.07
2018-04-25T20:58:07.947Z,5.57
2018-04-25T21:00:38.144Z,5.70
2018-04-25T21:03:07.953Z,3.93
2018-04-25T21:05:37.833Z,6.10
2018-04-25T21:08:07.915Z,6.27
2018-04-25T21:10:37.589Z,4.10
2018-04-25T21:13:07.498Z,5.43
2018-04-25T21:15:37.766Z,6.40
2018-04-25T21:18:07.740Z,7.10
2018-04-25T21:20:38.532Z,5.13
2018-04-25T21:23:09.690Z,5.47
2018-04-25T21:25:39.614Z,3.23
2018-04-25T21:28:09.531Z,3.90
2018-04-25T21:30:39.438Z,5.23
2018-04-25T21:33:09.385Z,3.17
2018-04-25T21:35:39.600Z,6.30
2018-04-25T21:38:09.473Z,6.67
2018-04-25T21:40:40.122Z,2.97
2018-04-25T21:43:10.937Z,5.23
2018-04-25T21:45:42.043Z,4.93
2018-04-25T21:48:11.796Z,5.87
2018-04-25T21:50:42.436Z,5.73
2018-04-25T21:53:13.041Z,5.40
2018-04-25T21:55:44.117Z,4.87
2018-04-25T21:58:14.491Z,6.73
2018-04-25T22:00:49.601Z,3.63
2018-04-25T22:03:19.780Z,3.47
2018-04-25T22:05:50.468Z,5.87
2018-04-25T22:08:21.040Z,5.27
2018-04-25T22:10:52.039Z,6.37
2018-04-25T22:13:22.872Z,4.43
2018-04-25T22:15:53.059Z,5.40
2018-04-25T22:18:22.873Z,3.10
2018-04-25T22:20:53.083Z,6.63
2018-04-25T22:23:24.285Z,4.37
2018-04-25T22:25:54.226Z,3.73
2018-04-25T22:28:24.848Z,4.70
2018-04-25T22:30:54.816Z,7.27
2018-04-25T22:33:25.169Z,4.47
2018-04-25T22:35:56.234Z,5.40
2018-04-25T22:38:26.067Z,5.97
2018-04-25T22:40:56.636Z,3.50
2018-04-25T22:43:26.944Z,5.83
2018-04-25T22:45:56.902Z,5.87
2018-04-25T22:48:26.854Z,2.67
2018-04-25T22:50:56.751Z,3.93
2018-04-25T22:53:27.321Z,3.23
2018-04-25T22:55:57.454Z,4.33
2018-04-25T22:58:27.979Z,4.97
2018-04-25T23:00:58.725Z,6.77
2018-04-25T23:03:28.845Z,1.90
2018-04-25T23:05:58.676Z,5.57
2018-04-25T23:08:28.607Z,3.60
2018-04-25T23:10:59.726Z,3.43
2018-04-25T23:13:30.108Z,3.10
2018-04-25T23:16:02.597Z,4.23
2018-04-25T23:18:34.833Z,4.70
2018-04-25T23:21:05.419Z,3.07
2018-04-25T23:23:38.247Z,2.73
2018-04-25T23:26:09.729Z,3.40
2018-04-25T23:28:40.584Z,4.33
2018-04-25T23:31:11.503Z,4.27
2018-04-25T23:33:42.155Z,7.17
2018-04-25T23:36:13.063Z,3.83
2018-04-25T23:38:44.467Z,4.83
2018-04-25T23:41:15.281Z,5.23
2018-04-25T23:43:45.946Z,6.63
2018-04-25T23:46:16.095Z,4.90
2018-04-25T23:48:47.302Z,5.37
2018-04-25T23:51:18.083Z,5.40
2018-04-25T23:53:48.174Z,9.90
2018-04-25T23:56:19.080Z,3.97
2018-04-25T23:58:49.441Z,4.70
